Time;durP1;ratioP1;P1;durP2;ratioP2;P2;SDS_P1;SDS_P2;PMS_P1;PMS_P2;Temp;Humidity;BMP_temperature;BMP_pressure;BME280_temperature;BME280_humidity;BME280_pressure;Samples;Min_cycle;Max_cycle;Signal;HPM_P1;HPM_P2
2022/05/15 00:00:37;;;;;;;17.03;7.87;;;9.00;85.60;;;;;;5014114;28;20136;-47
2022/05/15 00:00:39;;;;;;;15.32;6.68;;;8.90;85.70;;;;;;5014336;28;20125;-44
2022/05/15 00:03:13;;;;;;;19.50;7.60;;;9.00;85.60;;;;;;5017823;28;20041;-46
2022/05/15 00:05:40;;;;;;;17.00;7.05;;;8.90;85.60;;;;;;5028042;28;20052;-49
2022/05/15 00:08:09;;;;;;;13.18;6.28;;;8.90;85.70;;;;;;5032842;28;20080;-46
2022/05/15 00:10:41;;;;;;;15.95;7.10;;;8.90;85.70;;;;;;5017964;28;20513;-45
2022/05/15 00:13:10;;;;;;;14.82;7.38;;;8.90;85.70;;;;;;5012669;28;20030;-45
2022/05/15 00:15:38;;;;;;;10.95;6.35;;;8.90;85.70;;;;;;5027080;28;20056;-46
2022/05/15 00:18:06;;;;;;;12.60;5.93;;;8.80;85.50;;;;;;5015916;28;20046;-45
2022/05/15 00:20:39;;;;;;;13.63;5.75;;;8.80;85.40;;;;;;5030546;28;20124;-47
2022/05/15 00:23:08;;;;;;;13.32;5.57;;;8.80;85.50;;;;;;5013211;28;20374;-45
2022/05/15 00:25:35;;;;;;;8.82;5.50;;;8.80;85.50;;;;;;5009440;28;20033;-45
2022/05/15 00:28:02;;;;;;;10.40;6.50;;;8.80;85.40;;;;;;5032066;28;20446;-46
2022/05/15 00:30:31;;;;;;;14.13;7.13;;;8.80;85.50;;;;;;5018019;28;20136;-44
2022/05/15 00:33:02;;;;;;;13.38;6.93;;;8.70;85.40;;;;;;5027999;28;20470;-44
2022/05/15 00:35:30;;;;;;;13.80;7.10;;;8.70;85.60;;;;;;5025762;28;20413;-44
2022/05/15 00:37:57;;;;;;;12.63;7.75;;;8.70;85.70;;;;;;5032034;28;20027;-47
2022/05/15 00:40:24;;;;;;;13.07;5.78;;;8.70;85.70;;;;;;5031952;28;20025;-48
2022/05/15 00:42:51;;;;;;;12.23;6.05;;;8.60;85.80;;;;;;5032583;28;20458;-46
2022/05/15 00:45:23;;;;;;;12.75;6.03;;;8.60;85.70;;;;;;5019844;28;20112;-44
2022/05/15 00:47:50;;;;;;;9.63;6.03;;;8.60;85.80;;;;;;5012406;28;20033;-45
2022/05/15 00:50:30;;;;;;;13.70;6.40;;;8.60;85.40;;;;;;5029434;28;20025;-45
2022/05/15 00:53:04;;;;;;;13.90;7.10;;;8.50;85.70;;;;;;5015544;28;20562;-44
2022/05/15 00:55:44;;;;;;;12.75;6.22;;;8.50;85.70;;;;;;5027357;28;20030;-45
2022/05/15 00:58:23;;;;;;;14.07;6.80;;;8.40;86.00;;;;;;4995270;28;20058;-45
2022/05/15 01:00:50;;;;;;;;;;;8.50;86.30;;;;;;5017642;28;20128;-45
2022/05/15 01:03:22;;;;;;;14.15;6.25;;;8.50;86.30;;;;;;5006788;28;19949;-44
2022/05/15 01:05:57;;;;;;;19.13;8.30;;;8.60;86.50;;;;;;5024494;28;20041;-47
2022/05/15 01:08:29;;;;;;;13.80;6.07;;;8.60;86.30;;;;;;4995862;28;20109;-48
2022/05/15 01:11:01;;;;;;;17.20;6.63;;;8.50;86.10;;;;;;5031394;28;20089;-44
2022/05/15 01:13:34;;;;;;;16.73;6.88;;;8.60;86.20;;;;;;5035757;28;20034;-46
2022/05/15 01:16:02;;;;;;;17.88;6.93;;;8.60;86.20;;;;;;5017658;28;20048;-46
2022/05/15 01:18:36;;;;;;;19.77;7.45;;;8.50;86.10;;;;;;5004164;28;20036;-43
2022/05/15 01:21:40;;;;;;;12.43;6.53;;;8.60;86.30;;;;;;5026864;28;20033;-44
2022/05/15 01:24:08;;;;;;;20.48;7.53;;;8.60;86.30;;;;;;5035545;28;20374;-44
2022/05/15 01:26:38;;;;;;;13.70;6.47;;;8.50;86.10;;;;;;5016883;28;20538;-43
2022/05/15 01:29:06;;;;;;;13.82;7.30;;;8.60;86.20;;;;;;5016068;28;20025;-45
2022/05/15 01:31:34;;;;;;;12.55;6.55;;;8.60;86.40;;;;;;5030937;28;20065;-44
2022/05/15 01:34:04;;;;;;;12.95;6.85;;;8.60;86.30;;;;;;5029796;28;20037;-43
2022/05/15 01:36:31;;;;;;;13.40;7.95;;;8.60;86.30;;;;;;4999260;28;20022;-44
2022/05/15 01:38:58;;;;;;;15.43;6.80;;;8.60;86.50;;;;;;5026301;28;20512;-45
2022/05/15 01:41:25;;;;;;;15.73;7.30;;;8.70;86.50;;;;;;5033994;28;20362;-45
2022/05/15 01:43:55;;;;;;;13.93;6.50;;;8.70;86.60;;;;;;5017327;28;20113;-44
2022/05/15 01:46:24;;;;;;;14.82;6.78;;;8.70;86.60;;;;;;5020551;28;20025;-44
2022/05/15 01:48:52;;;;;;;12.05;5.75;;;8.80;86.40;;;;;;5025494;28;20037;-45
2022/05/15 01:51:19;;;;;;;17.98;6.18;;;8.70;86.40;;;;;;5018053;28;20521;-44
2022/05/15 01:53:46;;;;;;;7.45;4.10;;;8.70;86.30;;;;;;5028447;28;20026;-44
2022/05/15 01:56:15;;;;;;;7.78;3.97;;;8.70;86.10;;;;;;5027749;28;20086;-44
2022/05/15 01:58:42;;;;;;;8.27;3.72;;;8.70;86.20;;;;;;5016423;28;20458;-45
2022/05/15 02:01:09;;;;;;;6.78;4.47;;;8.70;86.00;;;;;;5020194;28;20041;-44
2022/05/15 02:03:36;;;;;;;8.40;4.07;;;8.60;85.80;;;;;;5030622;28;20443;-45
2022/05/15 02:06:04;;;;;;;7.65;3.70;;;8.70;86.30;;;;;;5018279;28;20458;-44
2022/05/15 02:08:33;;;;;;;7.30;3.90;;;8.60;86.20;;;;;;5033962;28;20037;-43
2022/05/15 02:11:00;;;;;;;6.13;3.80;;;8.60;86.30;;;;;;5017031;28;20030;-44
2022/05/15 02:13:33;;;;;;;7.57;4.22;;;8.70;86.40;;;;;;5034536;28;20336;-45
2022/05/15 02:16:01;;;;;;;8.38;4.20;;;8.80;86.50;;;;;;5032419;28;20026;-43
2022/05/15 02:18:28;;;;;;;9.38;5.05;;;8.80;86.50;;;;;;4996794;28;20459;-45
2022/05/15 02:20:55;;;;;;;13.15;5.07;;;8.80;86.50;;;;;;5014357;28;20061;-44
2022/05/15 02:23:22;;;;;;;10.07;4.88;;;8.80;86.60;;;;;;5013849;28;20033;-44
2022/05/15 02:25:49;;;;;;;13.90;6.30;;;8.80;86.40;;;;;;5021013;28;20044;-44
2022/05/15 02:28:16;;;;;;;9.00;5.03;;;8.80;86.50;;;;;;5033593;28;20033;-43
2022/05/15 02:30:47;;;;;;;11.77;5.57;;;8.80;86.40;;;;;;5033270;28;20027;-48
2022/05/15 02:33:14;;;;;;;8.23;4.88;;;8.70;86.50;;;;;;5019005;28;20389;-45
2022/05/15 02:35:41;;;;;;;7.53;4.88;;;8.70;86.50;;;;;;5034372;28;20335;-44
2022/05/15 02:38:08;;;;;;;11.15;5.60;;;8.60;86.40;;;;;;5014014;28;20037;-44
2022/05/15 02:40:36;;;;;;;11.05;5.38;;;8.60;86.60;;;;;;5020355;28;20056;-47
2022/05/15 02:43:03;;;;;;;10.95;5.07;;;8.50;86.60;;;;;;5023921;28;20368;-44
2022/05/15 02:45:32;;;;;;;11.23;5.20;;;8.50;86.30;;;;;;5014829;28;20029;-43
2022/05/15 02:47:59;;;;;;;12.57;5.32;;;8.50;86.60;;;;;;5013799;28;20349;-44
2022/05/15 02:53:10;;;;;;;10.18;5.63;;;8.40;86.50;;;;;;5033111;28;20049;-43
2022/05/15 02:55:35;;;;;;;9.15;5.07;;;8.40;86.30;;;;;;5020804;28;20029;-44
2022/05/15 02:58:03;;;;;;;9.27;5.22;;;8.30;86.30;;;;;;5032647;28;20446;-45
2022/05/15 03:00:30;;;;;;;9.68;4.78;;;8.30;86.50;;;;;;5033000;28;20021;-43
2022/05/15 03:02:57;;;;;;;9.15;6.07;;;8.30;86.50;;;;;;5033044;28;20056;-44
2022/05/15 03:05:24;;;;;;;10.75;5.82;;;8.20;86.50;;;;;;5033340;28;20068;-45
2022/05/15 03:07:55;;;;;;;8.85;5.55;;;8.20;86.60;;;;;;5033685;28;20470;-43
2022/05/15 03:10:22;;;;;;;7.82;5.32;;;8.20;86.70;;;;;;5032217;28;20053;-45
2022/05/15 03:12:49;;;;;;;10.05;5.22;;;8.10;86.70;;;;;;5049119;28;20044;-43
2022/05/15 03:15:19;;;;;;;8.45;6.22;;;8.10;86.80;;;;;;5033592;28;20098;-46
2022/05/15 03:17:48;;;;;;;9.70;6.18;;;8.10;86.70;;;;;;5032683;28;20028;-47
2022/05/15 03:20:17;;;;;;;10.23;6.03;;;8.00;86.80;;;;;;5033538;28;20048;-43
2022/05/15 03:22:44;;;;;;;7.30;5.38;;;8.00;86.60;;;;;;5032773;28;20090;-48
2022/05/15 03:25:14;;;;;;;6.40;5.40;;;7.90;86.70;;;;;;5028976;28;20192;-44
2022/05/15 03:27:41;;;;;;;7.05;5.78;;;7.90;86.80;;;;;;5033238;28;20098;-43
2022/05/15 03:30:09;;;;;;;7.05;6.03;;;7.90;86.80;;;;;;5033088;28;20038;-44
2022/05/15 03:32:37;;;;;;;8.13;6.10;;;7.90;86.80;;;;;;5049879;28;20044;-43
2022/05/15 03:35:07;;;;;;;7.45;6.07;;;7.90;86.60;;;;;;5016683;28;20044;-44
2022/05/15 03:37:34;;;;;;;8.40;5.10;;;7.80;86.60;;;;;;5033335;28;20029;-43
2022/05/15 03:40:01;;;;;;;9.40;6.60;;;7.80;86.90;;;;;;5033124;28;20323;-44
2022/05/15 03:42:31;;;;;;;8.15;6.03;;;7.80;87.00;;;;;;5031891;28;20030;-42
2022/05/15 03:45:01;;;;;;;;;;;7.90;87.00;;;;;;5033153;28;20083;-47
2022/05/15 03:47:29;;;;;;;11.25;6.05;;;7.90;86.90;;;;;;5032959;28;19912;-44
2022/05/15 03:50:03;;;;;;;10.05;6.40;;;7.90;86.70;;;;;;5032960;28;20548;-44
2022/05/15 03:52:32;;;;;;;10.68;6.25;;;7.90;86.60;;;;;;5014111;28;20041;-45
2022/05/15 03:54:58;;;;;;;11.48;6.47;;;7.90;86.80;;;;;;5025842;28;20123;-45
2022/05/15 03:57:25;;;;;;;10.98;6.40;;;7.90;86.60;;;;;;5026211;28;20052;-43
2022/05/15 03:59:53;;;;;;;10.02;5.68;;;7.90;86.50;;;;;;5029467;28;20047;-44
2022/05/15 04:02:20;;;;;;;8.90;6.20;;;7.90;86.60;;;;;;5029839;28;20030;-46
2022/05/15 04:04:46;;;;;;;9.32;5.90;;;7.90;86.40;;;;;;5030992;28;20140;-44
2022/05/15 04:07:12;;;;;;;9.40;6.32;;;7.90;86.50;;;;;;5031785;28;20040;-44
2022/05/15 04:09:40;;;;;;;12.65;6.55;;;8.00;86.60;;;;;;5032178;28;20036;-44
2022/05/15 04:12:09;;;;;;;9.88;6.60;;;8.00;86.60;;;;;;5032556;28;20083;-46
2022/05/15 04:14:38;;;;;;;9.68;6.28;;;8.10;86.60;;;;;;5025050;28;20038;-45
2022/05/15 04:17:06;;;;;;;10.43;6.35;;;8.10;86.50;;;;;;5005934;28;20158;-43
2022/05/15 04:19:37;;;;;;;10.75;7.50;;;8.10;86.60;;;;;;5017324;28;20026;-45
2022/05/15 04:22:07;;;;;;;12.23;7.25;;;8.20;86.60;;;;;;5025360;28;20439;-43
2022/05/15 04:24:34;;;;;;;;;;;8.30;86.60;;;;;;5025977;28;20884;-44
2022/05/15 04:27:02;;;;;;;14.50;7.72;;;8.40;86.80;;;;;;5011398;28;19917;-44
2022/05/15 04:29:30;;;;;;;12.23;7.68;;;8.50;86.70;;;;;;4995269;28;20025;-43
2022/05/15 04:31:57;;;;;;;11.52;7.32;;;8.60;86.70;;;;;;5004702;28;20077;-45
2022/05/15 04:34:26;;;;;;;9.52;6.50;;;8.60;86.60;;;;;;5026888;28;20108;-44
2022/05/15 04:36:53;;;;;;;13.30;6.72;;;8.80;86.60;;;;;;5013543;28;20086;-44
2022/05/15 04:39:20;;;;;;;11.77;7.18;;;8.90;86.80;;;;;;5011272;28;20037;-44
2022/05/15 04:41:46;;;;;;;7.80;5.55;;;8.90;86.60;;;;;;5018464;28;20116;-44
2022/05/15 04:44:13;;;;;;;11.18;6.95;;;9.00;86.50;;;;;;5030794;28;20105;-44
2022/05/15 04:46:40;;;;;;;8.38;5.82;;;9.10;86.40;;;;;;5020591;28;20031;-44
2022/05/15 04:49:06;;;;;;;9.80;6.15;;;9.20;86.30;;;;;;5012187;28;20109;-44
2022/05/15 04:51:33;;;;;;;8.35;5.50;;;9.30;86.40;;;;;;5012278;28;20037;-48
2022/05/15 04:54:02;;;;;;;7.25;5.00;;;9.40;86.20;;;;;;5011295;28;20037;-44
2022/05/15 04:56:29;;;;;;;9.15;6.03;;;9.50;86.00;;;;;;5020928;28;20078;-43
2022/05/15 04:58:56;;;;;;;9.30;5.50;;;9.60;86.00;;;;;;5014746;28;20084;-46
2022/05/15 05:01:25;;;;;;;10.90;6.35;;;9.70;86.00;;;;;;5007432;28;20042;-44
2022/05/15 05:03:57;;;;;;;13.55;5.72;;;9.90;85.70;;;;;;5018252;28;20022;-47
2022/05/15 05:06:25;;;;;;;14.25;5.55;;;10.00;85.90;;;;;;5014011;28;20096;-46
2022/05/15 05:08:52;;;;;;;9.57;6.00;;;10.20;85.80;;;;;;5024625;28;20427;-46
2022/05/15 05:11:20;;;;;;;11.20;6.82;;;10.40;85.70;;;;;;5023421;28;20038;-45
2022/05/15 05:13:51;;;;;;;11.30;6.07;;;10.40;85.50;;;;;;4994841;28;20458;-47
2022/05/15 05:16:18;;;;;;;9.27;5.75;;;10.50;85.20;;;;;;5027547;28;20087;-43
2022/05/15 05:18:45;;;;;;;12.43;6.18;;;10.60;85.40;;;;;;5009617;28;20033;-48
2022/05/15 05:21:12;;;;;;;11.52;6.70;;;10.70;85.70;;;;;;5027455;28;20037;-44
2022/05/15 05:23:41;;;;;;;14.13;7.20;;;10.80;85.80;;;;;;5022252;28;20021;-45
2022/05/15 05:26:07;;;;;;;17.40;8.93;;;10.90;85.90;;;;;;5025325;28;20026;-44
2022/05/15 05:28:34;;;;;;;17.33;9.60;;;10.90;86.20;;;;;;5030370;28;20037;-43
2022/05/15 05:31:01;;;;;;;19.17;9.30;;;10.90;86.60;;;;;;5021422;28;20026;-47
2022/05/15 05:33:29;;;;;;;19.23;9.27;;;11.10;86.90;;;;;;5012364;28;20081;-46
2022/05/15 05:35:56;;;;;;;17.92;9.95;;;11.20;86.80;;;;;;4995750;28;20033;-45
2022/05/15 05:38:23;;;;;;;18.20;8.88;;;11.40;86.60;;;;;;5014227;28;20357;-44
2022/05/15 05:40:49;;;;;;;24.00;9.32;;;11.60;86.40;;;;;;5011427;28;20038;-46
2022/05/15 05:43:16;;;;;;;25.55;10.25;;;11.80;86.00;;;;;;5011330;28;20033;-48
2022/05/15 05:45:42;;;;;;;20.30;9.43;;;12.00;85.60;;;;;;5011378;28;20131;-47
2022/05/15 05:48:08;;;;;;;17.17;8.32;;;12.30;85.30;;;;;;5015945;28;20034;-48
2022/05/15 05:50:36;;;;;;;19.63;9.57;;;12.50;85.10;;;;;;5027114;28;20044;-45
2022/05/15 05:53:03;;;;;;;16.38;7.95;;;12.70;84.90;;;;;;5012168;28;20022;-44
2022/05/15 05:55:33;;;;;;;21.50;8.35;;;13.00;84.90;;;;;;5015456;28;20328;-45
2022/05/15 05:58:00;;;;;;;29.38;10.18;;;13.10;84.20;;;;;;5014890;28;20125;-46
2022/05/15 06:00:30;;;;;;;12.88;7.13;;;13.20;84.50;;;;;;5015090;28;20120;-49
2022/05/15 06:05:44;;;;;;;21.38;7.18;;;13.30;84.10;;;;;;5015524;28;20037;-45
2022/05/15 06:08:11;;;;;;;25.92;9.95;;;13.40;84.10;;;;;;5014987;28;20049;-45
2022/05/15 06:10:38;;;;;;;19.92;7.85;;;13.30;83.80;;;;;;5014125;28;20112;-47
2022/05/15 06:13:05;;;;;;;16.88;6.80;;;13.30;84.20;;;;;;5015580;28;20022;-45
2022/05/15 06:15:35;;;;;;;18.52;8.57;;;13.40;84.20;;;;;;5014666;28;20049;-45
2022/05/15 06:18:04;;;;;;;23.50;9.82;;;13.40;84.30;;;;;;5016487;28;20030;-48
2022/05/15 06:20:32;;;;;;;18.00;7.53;;;13.40;84.60;;;;;;5015737;28;20087;-46
2022/05/15 06:22:57;;;;;;;15.20;6.03;;;13.50;84.50;;;;;;4999989;28;20132;-51
2022/05/15 06:25:23;;;;;;;19.33;7.07;;;13.50;84.10;;;;;;5014450;28;20112;-48
2022/05/15 06:27:49;;;;;;;23.48;8.35;;;13.60;84.40;;;;;;5014040;28;20062;-47
2022/05/15 06:30:17;;;;;;;22.60;7.05;;;13.50;83.90;;;;;;5016645;28;20037;-46
2022/05/15 06:32:45;;;;;;;24.45;7.35;;;13.40;83.30;;;;;;5014550;28;20072;-46
2022/05/15 06:35:13;;;;;;;22.40;6.78;;;13.50;83.60;;;;;;5014598;28;20030;-45
2022/05/15 06:37:41;;;;;;;14.65;6.13;;;13.50;83.40;;;;;;5029544;28;20425;-46
2022/05/15 06:40:09;;;;;;;18.67;5.95;;;13.50;83.70;;;;;;5029128;28;20175;-48
2022/05/15 06:42:35;;;;;;;19.77;6.75;;;13.60;84.00;;;;;;5029933;28;20112;-46
2022/05/15 06:45:03;;;;;;;20.15;7.25;;;13.60;83.10;;;;;;5014524;28;20124;-46
2022/05/15 06:47:28;;;;;;;17.77;6.28;;;13.60;83.10;;;;;;5013161;28;20436;-45
2022/05/15 06:49:56;;;;;;;19.05;6.53;;;13.80;83.90;;;;;;5013632;28;20095;-47
2022/05/15 06:52:22;;;;;;;17.10;6.20;;;14.00;83.30;;;;;;5015021;28;20038;-46
2022/05/15 06:54:49;;;;;;;21.00;6.00;;;14.10;82.60;;;;;;5019662;28;20045;-48
2022/05/15 06:57:34;;;;;;;18.50;5.75;;;14.20;82.20;;;;;;5053919;28;20064;-47
2022/05/15 07:00:14;;;;;;;17.77;5.82;;;14.40;82.20;;;;;;5033332;28;20040;-48
2022/05/15 07:02:41;;;;;;;;;;;14.60;82.00;;;;;;5048759;28;20041;-46
2022/05/15 07:05:10;;;;;;;14.57;5.15;;;14.60;81.10;;;;;;5033263;28;20387;-48
2022/05/15 07:07:40;;;;;;;14.75;5.82;;;14.60;80.70;;;;;;5052140;28;20036;-47
2022/05/15 07:10:07;;;;;;;;;;;14.60;80.30;;;;;;5040911;28;20021;-46
2022/05/15 07:12:36;;;;;;;19.00;5.53;;;14.50;80.10;;;;;;5036569;28;19943;-47
2022/05/15 07:15:03;;;;;;;18.17;5.37;;;14.50;80.50;;;;;;5046254;28;20613;-47
2022/05/15 07:17:31;;;;;;;22.70;7.35;;;14.60;80.80;;;;;;5052594;28;20734;-49
2022/05/15 07:20:00;;;;;;;18.90;5.65;;;14.70;80.10;;;;;;5034848;28;20116;-46
2022/05/15 07:22:28;;;;;;;14.98;5.40;;;15.00;79.70;;;;;;5029994;28;20094;-47
2022/05/15 07:24:54;;;;;;;19.75;7.15;;;15.30;78.40;;;;;;5053418;28;20017;-47
2022/05/15 07:27:21;;;;;;;18.63;6.10;;;15.90;77.30;;;;;;5052828;28;20021;-46
2022/05/15 07:29:48;;;;;;;18.02;6.78;;;16.20;74.30;;;;;;5038037;28;20414;-47
2022/05/15 07:32:15;;;;;;;15.35;4.78;;;16.70;74.60;;;;;;5033246;28;20025;-47
2022/05/15 07:34:41;;;;;;;14.82;5.13;;;17.10;72.70;;;;;;5050202;28;20044;-46
2022/05/15 07:37:09;;;;;;;19.65;5.95;;;17.50;70.50;;;;;;5033011;28;20033;-50
2022/05/15 07:39:36;;;;;;;12.48;5.20;;;17.90;71.60;;;;;;5049562;28;20044;-48
2022/05/15 07:42:03;;;;;;;18.20;7.65;;;18.20;66.70;;;;;;5035850;28;20175;-48
2022/05/15 07:44:30;;;;;;;17.27;5.13;;;18.00;67.00;;;;;;5032779;28;20040;-51
2022/05/15 07:46:59;;;;;;;16.65;5.65;;;17.70;69.20;;;;;;5033292;28;20029;-50
2022/05/15 07:49:26;;;;;;;17.27;5.03;;;17.50;68.00;;;;;;5049662;28;20372;-47
2022/05/15 07:51:54;;;;;;;15.07;5.55;;;17.40;69.40;;;;;;5044056;28;20461;-47
2022/05/15 07:54:21;;;;;;;12.27;4.60;;;17.90;68.60;;;;;;5032204;28;20057;-51
2022/05/15 07:56:47;;;;;;;16.13;6.45;;;18.20;66.70;;;;;;5033127;28;20455;-49
2022/05/15 07:59:14;;;;;;;14.00;4.88;;;18.30;66.00;;;;;;5012518;28;20042;-50
2022/05/15 08:01:42;;;;;;;13.52;4.70;;;18.80;64.70;;;;;;5014707;28;20037;-47
2022/05/15 08:04:10;;;;;;;13.35;5.10;;;19.40;63.00;;;;;;5013215;28;20399;-46
2022/05/15 08:09:23;;;;;;;12.18;4.43;;;20.10;60.80;;;;;;5011498;28;20037;-47
2022/05/15 08:11:51;;;;;;;15.70;5.35;;;20.30;60.90;;;;;;5012356;28;20041;-47
2022/05/15 08:14:18;;;;;;;15.13;5.32;;;20.60;59.70;;;;;;5011678;28;20014;-49
2022/05/15 08:16:45;;;;;;;13.80;4.28;;;21.00;57.50;;;;;;5011045;28;20057;-49
2022/05/15 08:24:45;;;;;;;8.93;3.75;;;21.50;55.10;;;;;;5012032;28;20056;-46
2022/05/15 08:27:12;;;;;;;18.58;5.53;;;20.60;57.20;;;;;;5020321;28;20087;-49
2022/05/15 08:29:38;;;;;;;14.52;4.90;;;19.60;59.30;;;;;;5012095;28;20109;-47
2022/05/15 08:32:06;;;;;;;13.75;6.43;;;19.60;61.80;;;;;;5024388;28;20045;-47
2022/05/15 08:34:34;;;;;;;14.70;5.35;;;19.30;62.30;;;;;;5013071;28;20041;-47
2022/05/15 08:37:01;;;;;;;13.13;4.95;;;18.60;62.90;;;;;;5031906;28;20060;-46
2022/05/15 08:39:29;;;;;;;13.88;5.93;;;18.40;65.70;;;;;;5031888;28;20067;-49
2022/05/15 08:42:48;;;;;;;18.98;5.95;;;18.80;64.70;;;;;;5015512;28;20033;-46
2022/05/15 08:45:17;;;;;;;;;;;19.10;63.40;;;;;;4913871;29;20071;-47
2022/05/15 08:47:48;;;;;;;13.63;4.07;;;19.40;62.30;;;;;;4913936;29;19974;-47
2022/05/15 08:50:37;;;;;;;14.65;4.40;;;19.50;62.00;;;;;;4913619;29;20076;-48
2022/05/15 08:53:14;;;;;;;12.90;4.88;;;20.00;62.60;;;;;;4925608;29;20048;-49
2022/05/15 08:55:43;;;;;;;16.65;5.55;;;19.90;59.20;;;;;;4924402;29;20476;-50
2022/05/15 08:58:29;;;;;;;10.88;4.32;;;19.90;61.00;;;;;;4931583;29;20047;-47
2022/05/15 09:00:56;;;;;;;13.02;5.07;;;20.40;59.50;;;;;;4932002;29;20482;-47
2022/05/15 09:03:26;;;;;;;14.25;4.43;;;20.30;58.30;;;;;;4941229;29;20031;-47
2022/05/15 09:06:26;;;;;;;11.07;4.30;;;19.90;60.20;;;;;;4936983;29;20581;-49
2022/05/15 09:09:10;;;;;;;14.20;5.15;;;19.90;61.90;;;;;;4939923;29;20032;-47
2022/05/15 09:11:56;;;;;;;14.85;5.53;;;19.90;59.40;;;;;;4931839;29;20078;-50
2022/05/15 09:14:46;;;;;;;13.73;5.03;;;19.90;61.80;;;;;;4941007;29;20501;-47
2022/05/15 09:17:42;;;;;;;11.98;4.55;;;19.90;60.50;;;;;;4951049;29;20042;-47
2022/05/15 09:20:14;;;;;;;14.60;4.25;;;19.50;63.70;;;;;;5014235;28;20045;-47
2022/05/15 09:22:47;;;;;;;12.60;5.15;;;19.60;62.30;;;;;;5016913;28;20026;-47
2022/05/15 09:25:24;;;;;;;11.07;4.47;;;19.40;62.30;;;;;;5031398;28;20026;-48
2022/05/15 09:28:10;;;;;;;14.93;5.57;;;19.40;62.60;;;;;;5018004;28;20125;-47
2022/05/15 09:30:56;;;;;;;10.90;4.35;;;19.50;61.40;;;;;;5014834;28;20022;-47
2022/05/15 09:33:44;;;;;;;12.45;4.45;;;19.40;64.10;;;;;;5015858;28;20030;-47
2022/05/15 09:36:25;;;;;;;14.73;4.05;;;19.40;62.50;;;;;;5024871;28;20091;-47
2022/05/15 09:39:23;;;;;;;12.77;4.70;;;19.60;63.70;;;;;;5032778;28;20378;-48
2022/05/15 09:45:23;;;;;;;10.95;4.60;;;19.50;62.20;;;;;;5025359;28;20068;-47
2022/05/15 09:47:58;;;;;;;12.38;5.22;;;19.70;60.30;;;;;;5034768;28;20083;-48
2022/05/15 09:50:50;;;;;;;10.77;4.22;;;19.60;62.70;;;;;;5035159;28;20048;-47
2022/05/15 09:53:37;;;;;;;12.68;5.03;;;19.40;61.10;;;;;;5024078;28;20422;-47
2022/05/15 09:56:18;;;;;;;13.88;3.90;;;19.60;60.80;;;;;;5019636;28;20398;-46
2022/05/15 09:58:52;;;;;;;10.98;4.03;;;19.60;60.60;;;;;;5032647;28;20028;-50
2022/05/15 10:01:47;;;;;;;10.75;4.70;;;19.70;61.30;;;;;;5034448;28;20111;-48
2022/05/15 10:04:31;;;;;;;11.57;4.25;;;19.90;61.20;;;;;;5035083;28;20060;-48
2022/05/15 10:07:35;;;;;;;14.77;4.70;;;19.90;61.40;;;;;;5034833;28;20022;-47
2022/05/15 10:10:24;;;;;;;10.95;4.05;;;19.90;59.40;;;;;;5034644;28;20488;-47
2022/05/15 10:13:01;;;;;;;18.05;4.78;;;19.90;61.10;;;;;;5034756;28;20109;-47
2022/05/15 10:15:39;;;;;;;12.70;4.95;;;19.90;60.70;;;;;;5058256;28;20037;-47
2022/05/15 10:18:09;;;;;;;10.90;4.03;;;19.80;61.70;;;;;;5034292;28;20049;-47
2022/05/15 10:20:40;;;;;;;15.55;5.40;;;19.90;61.60;;;;;;5051303;28;20124;-47
2022/05/15 10:23:14;;;;;;;13.20;4.32;;;19.80;61.70;;;;;;5050203;28;20114;-49
2022/05/15 10:26:11;;;;;;;12.25;4.32;;;19.80;61.00;;;;;;5034526;28;20036;-49
2022/05/15 10:29:04;;;;;;;9.30;3.75;;;19.60;65.00;;;;;;5033172;28;20033;-47
2022/05/15 10:31:54;;;;;;;11.88;4.82;;;19.60;62.40;;;;;;5034328;28;20061;-49
2022/05/15 10:34:25;;;;;;;13.25;5.22;;;19.70;62.50;;;;;;5034157;28;20425;-47
2022/05/15 10:37:22;;;;;;;11.75;5.00;;;19.70;63.20;;;;;;5034182;28;20117;-48
2022/05/15 10:40:17;;;;;;;12.70;6.35;;;19.50;63.20;;;;;;5033274;28;20065;-46
2022/05/15 10:43:14;;;;;;;17.00;5.45;;;19.30;63.20;;;;;;5066260;28;20346;-50
2022/05/15 10:46:13;;;;;;;18.02;5.70;;;19.40;63.70;;;;;;5047020;28;20097;-49
2022/05/15 10:49:11;;;;;;;16.08;5.45;;;19.40;64.70;;;;;;5019686;28;20022;-47
2022/05/15 10:52:09;;;;;;;12.60;5.38;;;19.50;65.10;;;;;;5034018;28;20059;-47
2022/05/15 10:57:43;;;;;;;13.93;5.05;;;19.50;64.20;;;;;;5032157;28;20536;-50
2022/05/15 11:00:21;;;;;;;16.48;4.75;;;19.20;67.00;;;;;;5019010;28;20029;-47
2022/05/15 11:03:04;;;;;;;13.02;5.03;;;19.10;65.50;;;;;;5012878;28;20026;-48
2022/05/15 11:05:52;;;;;;;16.52;6.07;;;18.90;66.10;;;;;;5003741;28;20443;-48
2022/05/15 11:08:48;;;;;;;11.10;5.05;;;18.90;68.90;;;;;;5032189;28;20060;-47
2022/05/15 11:11:57;;;;;;;16.50;5.65;;;18.90;67.80;;;;;;5020682;28;20045;-46
2022/05/15 11:14:52;;;;;;;11.70;4.82;;;19.00;66.50;;;;;;5004329;28;20458;-48
2022/05/15 11:18:00;;;;;;;14.10;6.03;;;19.00;68.00;;;;;;5033473;28;20029;-48
2022/05/15 11:20:35;;;;;;;14.75;5.53;;;19.30;67.90;;;;;;5013910;28;20401;-47
2022/05/15 11:23:15;;;;;;;15.43;6.75;;;19.30;66.70;;;;;;5027123;28;21000;-47
2022/05/15 11:25:50;;;;;;;16.42;5.68;;;19.00;66.50;;;;;;5033633;28;20032;-47
2022/05/15 11:28:27;;;;;;;11.48;4.72;;;18.80;67.20;;;;;;5032868;28;20040;-47
2022/05/15 11:31:07;;;;;;;13.57;5.88;;;18.90;65.70;;;;;;5033097;28;20025;-48
2022/05/15 11:33:56;;;;;;;13.32;5.32;;;18.80;67.50;;;;;;5013670;28;20025;-48
2022/05/15 11:36:24;;;;;;;16.23;5.37;;;18.90;66.90;;;;;;4997313;28;20061;-47
2022/05/15 11:39:15;;;;;;;14.25;5.80;;;18.70;67.60;;;;;;5012817;28;20272;-48
2022/05/15 11:42:08;;;;;;;13.35;4.75;;;18.50;65.90;;;;;;5027455;28;20336;-46
2022/05/15 11:44:43;;;;;;;13.90;4.97;;;18.50;68.20;;;;;;5032805;28;20026;-48
2022/05/15 11:47:29;;;;;;;14.60;5.85;;;18.40;67.50;;;;;;5015455;28;20036;-48
2022/05/15 11:50:27;;;;;;;18.98;5.30;;;18.50;67.20;;;;;;5028626;28;20329;-47
2022/05/15 11:52:56;;;;;;;11.73;5.13;;;18.60;67.40;;;;;;5029461;28;20033;-48
2022/05/15 11:55:50;;;;;;;16.10;6.30;;;18.50;68.30;;;;;;5031027;28;20039;-47
2022/05/15 11:58:37;;;;;;;16.20;5.07;;;18.50;69.70;;;;;;4995945;28;20060;-47
2022/05/15 12:01:10;;;;;;;20.63;5.57;;;18.40;68.50;;;;;;4996790;28;20026;-47
2022/05/15 12:03:59;;;;;;;10.95;5.10;;;18.10;70.80;;;;;;5015220;28;20025;-48
2022/05/15 12:06:49;;;;;;;18.45;5.97;;;18.10;70.70;;;;;;5031275;28;20098;-47
2022/05/15 12:09:19;;;;;;;19.95;6.72;;;18.10;71.70;;;;;;5016907;28;20459;-47
2022/05/15 12:11:48;;;;;;;18.67;6.07;;;18.20;70.80;;;;;;5025790;28;20124;-47
2022/05/15 12:14:35;;;;;;;16.48;5.25;;;18.10;71.40;;;;;;5023244;28;20041;-47
2022/05/15 12:17:24;;;;;;;16.80;4.65;;;18.40;70.00;;;;;;5012603;28;20454;-46
2022/05/15 12:19:58;;;;;;;11.90;5.10;;;18.00;69.40;;;;;;5013003;28;20034;-47
2022/05/15 12:22:23;;;;;;;11.98;4.78;;;17.90;70.10;;;;;;5028894;28;20033;-51
2022/05/15 12:24:50;;;;;;;14.63;5.25;;;17.80;70.90;;;;;;5026930;28;20027;-49
2022/05/15 12:27:39;;;;;;;13.13;5.40;;;17.90;70.60;;;;;;5000781;28;20045;-48
2022/05/15 12:30:23;;;;;;;18.88;5.85;;;17.90;72.80;;;;;;4997605;28;20092;-47
2022/05/15 12:33:08;;;;;;;17.92;5.97;;;18.10;71.70;;;;;;5005896;28;20148;-48
2022/05/15 12:35:43;;;;;;;17.25;6.15;;;18.20;70.80;;;;;;5003949;28;20029;-46
2022/05/15 12:38:29;;;;;;;19.98;5.20;;;18.20;71.50;;;;;;4994438;28;22045;-47
2022/05/15 12:41:06;;;;;;;18.42;4.50;;;18.10;69.10;;;;;;4998679;28;20041;-49
2022/05/15 12:43:51;;;;;;;16.23;5.53;;;18.00;68.90;;;;;;5008104;28;20462;-47
2022/05/15 12:46:37;;;;;;;20.00;4.82;;;17.90;71.30;;;;;;5012888;28;20054;-46
2022/05/15 12:49:06;;;;;;;13.98;5.32;;;18.00;70.20;;;;;;5010519;28;20022;-48
2022/05/15 12:51:43;;;;;;;16.77;5.22;;;18.10;71.10;;;;;;5008288;28;20026;-47
2022/05/15 12:54:27;;;;;;;15.82;5.68;;;18.10;71.60;;;;;;5015940;28;20033;-46
2022/05/15 12:57:04;;;;;;;19.08;5.95;;;18.20;71.70;;;;;;5031488;28;20125;-46
2022/05/15 12:59:56;;;;;;;11.45;4.40;;;18.10;70.60;;;;;;5018368;28;20128;-47
2022/05/15 13:02:37;;;;;;;14.32;4.88;;;18.20;70.90;;;;;;5031160;28;20437;-48
2022/05/15 13:05:07;;;;;;;17.63;5.90;;;18.20;71.90;;;;;;5056498;28;20038;-46
2022/05/15 13:07:40;;;;;;;9.45;4.97;;;18.00;71.20;;;;;;5014459;28;20030;-50
2022/05/15 13:10:28;;;;;;;13.32;5.03;;;17.90;70.80;;;;;;5048124;28;20163;-48
2022/05/15 13:13:04;;;;;;;12.40;4.65;;;17.90;70.20;;;;;;5011859;28;20462;-46
2022/05/15 13:15:32;;;;;;;19.58;5.43;;;17.90;71.50;;;;;;5025997;28;20521;-47
2022/05/15 13:18:08;;;;;;;11.55;4.55;;;17.90;70.40;;;;;;5031730;28;20033;-46
2022/05/15 13:20:39;;;;;;;12.98;4.15;;;17.90;71.40;;;;;;5031758;28;20022;-48
2022/05/15 13:23:08;;;;;;;14.57;4.72;;;17.80;71.20;;;;;;5031524;28;20118;-46
2022/05/15 13:25:44;;;;;;;13.57;4.60;;;17.80;72.60;;;;;;5031699;28;20549;-46
2022/05/15 13:28:13;;;;;;;15.60;4.93;;;17.90;70.80;;;;;;5063880;28;20021;-48
2022/05/15 13:30:40;;;;;;;15.27;4.88;;;17.90;72.70;;;;;;5055258;28;20030;-46